Gassetts, Vermont
Current Conditions -  °F | °C
As of 4:55 AM on Friday 28 Nov 2014 (Local Time) from KRUT Reporting Station
Overcast Overcast  
Wind Chill: 17°   Ceiling: 3800
Heat Index: 23°   Visibility: 5mi
Dew Point: 21°   Wind: 5mph
Humidity: 93%   Direction: 10°N
Pressure: 30.01"   Gusts: NA
Location:  43.3606°N, 72.5739°W
Report Text: KRUT 280955Z 01004KT 5SM SCT009 OVC038 M05/M06 A3001 RMK AO1
Loading
Personal Weather Stations






























Interactive Weather Map New forecast layout! Learn more

10-Day Weather Forecast

Advertisements
Track Severe Weather on mobile